Time;durP1;ratioP1;P1;durP2;ratioP2;P2;SDS_P1;SDS_P2;PMS_P1;PMS_P2;Temp;Humidity;BMP_temperature;BMP_pressure;BME280_temperature;BME280_humidity;BME280_pressure;Samples;Min_cycle;Max_cycle;Signal;HPM_P1;HPM_P2
2024/02/14 00:02:21;;;;;;;10.57;6.20;;;1.60;99.90;;;;;;5010883;28;20565;-58
2024/02/14 00:04:48;;;;;;;12.50;7.03;;;1.60;99.90;;;;;;5009388;28;20423;-58
2024/02/14 00:07:14;;;;;;;12.50;7.27;;;1.60;99.90;;;;;;5014703;28;20973;-59
2024/02/14 00:09:40;;;;;;;10.30;5.77;;;1.60;99.90;;;;;;5008634;28;20792;-59
2024/02/14 00:12:06;;;;;;;11.50;6.90;;;1.60;99.90;;;;;;5011735;28;20459;-59
2024/02/14 00:14:32;;;;;;;15.43;6.80;;;1.70;99.90;;;;;;5011778;28;20659;-58
2024/02/14 00:16:59;;;;;;;15.90;7.33;;;1.70;99.90;;;;;;5010211;28;20459;-58
2024/02/14 00:19:25;;;;;;;13.60;7.50;;;1.70;99.90;;;;;;5010642;28;20188;-58
2024/02/14 00:21:50;;;;;;;14.17;7.43;;;1.70;99.90;;;;;;5012006;28;20446;-58
2024/02/14 00:24:17;;;;;;;10.87;6.93;;;1.70;99.90;;;;;;5011893;28;20449;-57
2024/02/14 00:26:46;;;;;;;13.10;7.40;;;1.70;99.90;;;;;;5008087;28;20187;-57
2024/02/14 00:29:11;;;;;;;12.20;6.90;;;1.70;99.90;;;;;;5010977;28;20423;-58
2024/02/14 00:31:37;;;;;;;9.30;6.40;;;1.70;99.90;;;;;;5010722;28;21179;-58
2024/02/14 00:34:02;;;;;;;10.57;5.33;;;1.70;99.90;;;;;;5009960;28;20266;-58
2024/02/14 00:36:28;;;;;;;11.80;5.80;;;1.60;99.90;;;;;;5006848;28;20227;-59
2024/02/14 00:38:54;;;;;;;11.50;5.53;;;1.60;99.90;;;;;;5010565;28;20175;-58
2024/02/14 00:41:19;;;;;;;7.77;5.53;;;1.60;99.90;;;;;;5010028;28;20205;-58
2024/02/14 00:43:45;;;;;;;10.53;6.20;;;1.60;99.90;;;;;;5010829;28;20196;-58
2024/02/14 00:46:17;;;;;;;11.73;6.90;;;1.60;99.90;;;;;;5011435;28;20241;-60
2024/02/14 00:48:44;;;;;;;12.63;6.80;;;1.60;99.90;;;;;;5011805;28;20171;-61
2024/02/14 00:51:10;;;;;;;11.03;5.97;;;1.60;99.90;;;;;;5013320;28;20797;-59
2024/02/14 00:53:35;;;;;;;9.53;6.47;;;1.60;99.90;;;;;;5008933;28;20629;-58
2024/02/14 00:56:01;;;;;;;10.83;6.40;;;1.60;99.90;;;;;;5010182;28;20189;-58
2024/02/14 00:58:26;;;;;;;9.47;6.00;;;1.60;99.90;;;;;;5008719;28;20203;-59
2024/02/14 01:00:52;;;;;;;9.87;6.53;;;1.60;99.90;;;;;;5010185;28;20203;-58
2024/02/14 01:03:18;;;;;;;8.87;6.10;;;1.60;99.90;;;;;;5009358;28;20173;-59
2024/02/14 01:05:43;;;;;;;13.20;6.57;;;1.60;99.90;;;;;;5008597;28;20173;-58
2024/02/14 01:08:09;;;;;;;11.20;6.23;;;1.60;99.90;;;;;;5006886;28;20195;-58
2024/02/14 01:10:35;;;;;;;8.10;5.60;;;1.60;99.90;;;;;;5007688;28;20230;-58
2024/02/14 01:13:00;;;;;;;14.47;6.97;;;1.70;99.90;;;;;;5011085;28;20306;-59
2024/02/14 01:15:26;;;;;;;11.00;6.10;;;1.70;99.90;;;;;;5013888;28;20501;-58
2024/02/14 01:17:52;;;;;;;13.90;6.67;;;1.70;99.90;;;;;;5010362;28;20201;-58
2024/02/14 01:20:18;;;;;;;9.50;6.17;;;1.70;99.90;;;;;;5008790;28;20279;-56
2024/02/14 01:22:46;;;;;;;11.50;6.53;;;1.70;99.90;;;;;;5010854;28;20169;-59
2024/02/14 01:25:11;;;;;;;14.50;6.60;;;1.70;99.90;;;;;;5009713;28;20964;-58
2024/02/14 01:27:37;;;;;;;13.33;6.57;;;1.80;99.90;;;;;;5007987;28;20434;-58
2024/02/14 01:30:04;;;;;;;8.90;6.17;;;1.80;99.90;;;;;;5009274;28;20227;-59
2024/02/14 01:32:30;;;;;;;10.87;6.23;;;1.80;99.90;;;;;;5007833;28;20177;-59
2024/02/14 01:34:55;;;;;;;12.60;7.50;;;1.80;99.90;;;;;;5007475;28;21056;-58
2024/02/14 01:37:21;;;;;;;14.17;6.63;;;1.80;99.90;;;;;;5009931;28;20207;-58
2024/02/14 01:39:46;;;;;;;10.80;7.10;;;1.80;99.90;;;;;;5006285;28;20627;-58
2024/02/14 01:42:12;;;;;;;13.10;7.00;;;1.90;99.90;;;;;;5007806;28;20223;-61
2024/02/14 01:44:38;;;;;;;9.90;6.00;;;1.90;99.90;;;;;;5007539;28;20182;-58
2024/02/14 01:47:05;;;;;;;10.20;6.07;;;1.90;99.90;;;;;;5011031;28;20185;-58
2024/02/14 01:49:31;;;;;;;11.40;5.97;;;1.90;99.90;;;;;;5016275;28;20422;-57
2024/02/14 01:52:01;;;;;;;9.97;6.90;;;1.90;99.90;;;;;;5008034;28;20455;-58
2024/02/14 01:54:27;;;;;;;8.90;5.87;;;1.90;99.90;;;;;;5009018;28;20181;-59
2024/02/14 01:56:54;;;;;;;9.50;6.03;;;1.90;99.90;;;;;;5007537;28;20471;-58
2024/02/14 01:59:20;;;;;;;11.00;5.00;;;1.90;99.90;;;;;;5013015;28;20509;-58
2024/02/14 02:01:46;;;;;;;9.33;5.70;;;1.90;99.90;;;;;;5004894;28;21005;-57
2024/02/14 02:04:12;;;;;;;9.00;5.23;;;1.90;99.90;;;;;;5009003;28;20515;-58
2024/02/14 02:06:41;;;;;;;10.30;6.10;;;1.90;99.90;;;;;;5008709;28;20179;-56
2024/02/14 02:09:07;;;;;;;13.20;7.47;;;1.90;99.90;;;;;;5009538;28;20187;-60
2024/02/14 02:11:55;;;;;;;9.27;5.77;;;1.90;99.90;;;;;;5014925;28;20454;-59
2024/02/14 02:14:21;;;;;;;9.80;5.20;;;1.90;99.90;;;;;;5005487;28;20415;-58
2024/02/14 02:16:48;;;;;;;9.93;5.77;;;1.90;99.90;;;;;;5006432;28;20957;-58
2024/02/14 02:19:15;;;;;;;9.97;5.60;;;1.90;99.90;;;;;;5006666;28;20442;-58
2024/02/14 02:21:46;;;;;;;13.47;6.83;;;1.90;99.90;;;;;;5012959;28;20448;-58
2024/02/14 02:24:11;;;;;;;13.63;6.50;;;1.80;99.90;;;;;;5003708;28;21058;-58
2024/02/14 02:26:37;;;;;;;15.70;6.80;;;1.80;99.90;;;;;;5008320;28;20438;-59
2024/02/14 02:29:05;;;;;;;9.10;6.10;;;1.80;99.90;;;;;;5012994;28;20713;-58
2024/02/14 02:31:30;;;;;;;11.37;6.43;;;1.70;99.90;;;;;;5010301;28;20294;-57
2024/02/14 02:33:56;;;;;;;9.63;6.63;;;1.70;99.90;;;;;;5007722;28;20511;-58
2024/02/14 02:36:24;;;;;;;11.70;6.57;;;1.70;99.90;;;;;;5008400;28;20223;-56
2024/02/14 02:38:50;;;;;;;10.83;6.33;;;1.70;99.90;;;;;;5011263;28;21006;-58
2024/02/14 02:41:15;;;;;;;14.20;7.20;;;1.60;99.90;;;;;;5007780;28;20470;-57
2024/02/14 02:43:41;;;;;;;15.70;7.50;;;1.60;99.90;;;;;;5008838;28;20408;-58
2024/02/14 02:46:09;;;;;;;13.10;6.90;;;1.60;99.90;;;;;;5007835;28;20189;-58
2024/02/14 02:48:35;;;;;;;13.13;7.27;;;1.60;99.90;;;;;;5008621;28;20246;-58
2024/02/14 02:51:01;;;;;;;13.00;6.80;;;1.60;99.90;;;;;;5006008;28;20469;-58
2024/02/14 02:53:27;;;;;;;11.93;6.40;;;1.60;99.90;;;;;;5010606;28;20415;-58
2024/02/14 02:55:54;;;;;;;11.53;6.23;;;1.50;99.90;;;;;;5007151;28;20183;-58
2024/02/14 02:58:21;;;;;;;12.67;6.63;;;1.50;99.90;;;;;;5005453;28;20216;-58
2024/02/14 03:00:49;;;;;;;16.77;6.10;;;1.50;99.90;;;;;;5007128;28;21105;-57
2024/02/14 03:03:15;;;;;;;10.27;7.20;;;1.50;99.90;;;;;;5007710;28;20427;-58
2024/02/14 03:05:44;;;;;;;10.30;5.93;;;1.50;99.90;;;;;;5004077;28;20423;-57
2024/02/14 03:08:15;;;;;;;9.10;6.40;;;1.40;99.90;;;;;;5002164;28;20430;-58
2024/02/14 03:10:41;;;;;;;9.83;5.33;;;1.40;99.90;;;;;;5006573;28;20533;-58
2024/02/14 03:13:13;;;;;;;10.83;5.93;;;1.30;99.90;;;;;;5006986;28;20948;-58
2024/02/14 03:15:39;;;;;;;11.57;5.77;;;1.30;99.90;;;;;;5008317;28;20267;-58
2024/02/14 03:18:08;;;;;;;8.30;5.40;;;1.30;99.90;;;;;;5005685;28;20546;-59
2024/02/14 03:20:34;;;;;;;13.10;5.60;;;1.20;99.90;;;;;;5005145;28;20200;-58
2024/02/14 03:23:01;;;;;;;10.00;6.00;;;1.20;99.90;;;;;;5008523;28;20473;-57
2024/02/14 03:25:26;;;;;;;13.23;5.77;;;1.20;99.90;;;;;;5006593;28;20435;-58
2024/02/14 03:27:53;;;;;;;11.70;5.67;;;1.20;99.90;;;;;;5002568;28;20839;-58
2024/02/14 03:30:20;;;;;;;9.03;5.07;;;1.20;99.90;;;;;;5006593;28;20203;-58
2024/02/14 03:32:49;;;;;;;10.90;5.43;;;1.20;99.90;;;;;;5005838;28;20489;-57
2024/02/14 03:35:15;;;;;;;6.67;5.03;;;1.10;99.90;;;;;;5009925;28;20435;-58
2024/02/14 03:37:42;;;;;;;8.50;5.33;;;1.20;99.90;;;;;;5010815;28;20490;-58
2024/02/14 03:40:09;;;;;;;9.30;4.87;;;1.10;99.90;;;;;;5004624;28;20435;-59
2024/02/14 03:42:35;;;;;;;12.63;6.30;;;1.10;99.90;;;;;;5007420;28;20426;-58
2024/02/14 03:45:05;;;;;;;10.20;6.20;;;1.20;99.90;;;;;;5012859;28;20748;-57
2024/02/14 03:47:34;;;;;;;8.80;5.43;;;1.20;99.90;;;;;;5011364;28;20409;-57
2024/02/14 03:50:01;;;;;;;9.73;5.10;;;1.20;99.90;;;;;;5011498;28;20489;-59
2024/02/14 03:52:27;;;;;;;9.50;6.20;;;1.30;99.90;;;;;;5010032;28;20867;-58
2024/02/14 03:54:53;;;;;;;10.50;5.83;;;1.30;99.90;;;;;;5012516;28;20453;-58
2024/02/14 03:57:18;;;;;;;10.87;6.10;;;1.30;99.90;;;;;;5010615;28;20278;-57
2024/02/14 03:59:44;;;;;;;9.70;5.50;;;1.40;99.90;;;;;;5011495;28;20796;-60
2024/02/14 04:02:10;;;;;;;9.53;7.30;;;1.40;99.90;;;;;;5010639;28;20259;-59
2024/02/14 04:04:42;;;;;;;12.53;6.10;;;1.40;99.90;;;;;;5014202;28;20417;-60
2024/02/14 04:07:08;;;;;;;10.67;5.40;;;1.40;99.90;;;;;;5007696;28;20450;-58
2024/02/14 04:09:34;;;;;;;10.37;5.67;;;1.50;99.90;;;;;;5011068;28;20445;-58
2024/02/14 04:12:00;;;;;;;12.87;6.40;;;1.40;99.90;;;;;;5010369;28;20439;-58
2024/02/14 04:14:26;;;;;;;8.90;5.37;;;1.40;99.90;;;;;;5009437;28;20500;-58
2024/02/14 04:16:51;;;;;;;8.93;5.90;;;1.40;99.90;;;;;;5010732;28;20196;-57
2024/02/14 04:19:17;;;;;;;10.70;5.13;;;1.40;99.90;;;;;;5011342;28;20179;-57
2024/02/14 04:21:43;;;;;;;9.90;5.70;;;1.40;99.90;;;;;;5010023;28;20217;-61
2024/02/14 04:24:09;;;;;;;9.50;5.63;;;1.40;99.90;;;;;;5011080;28;20259;-58
2024/02/14 04:26:35;;;;;;;11.70;6.90;;;1.40;99.90;;;;;;5010844;28;21038;-58
2024/02/14 04:29:00;;;;;;;12.73;6.83;;;1.40;99.90;;;;;;5013382;28;20229;-57
2024/02/14 04:31:26;;;;;;;10.67;6.10;;;1.40;99.90;;;;;;5009283;28;20199;-58
2024/02/14 04:33:54;;;;;;;8.90;5.53;;;1.40;99.90;;;;;;5008969;28;20259;-58
2024/02/14 04:36:20;;;;;;;10.23;5.50;;;1.40;99.90;;;;;;5010706;28;20175;-58
2024/02/14 04:38:47;;;;;;;16.00;5.40;;;1.40;99.90;;;;;;5010014;28;20421;-58
2024/02/14 04:41:14;;;;;;;12.50;4.60;;;1.30;99.90;;;;;;5009014;28;20459;-58
2024/02/14 04:43:40;;;;;;;8.00;5.00;;;1.30;99.90;;;;;;5011874;28;20414;-58
2024/02/14 04:46:07;;;;;;;7.20;5.33;;;1.30;99.90;;;;;;5009101;28;20431;-58
2024/02/14 04:48:36;;;;;;;10.63;5.80;;;1.30;99.90;;;;;;5008840;28;20418;-57
2024/02/14 04:51:02;;;;;;;7.00;4.90;;;1.20;99.90;;;;;;5006817;28;20833;-58
2024/02/14 04:53:28;;;;;;;5.87;4.53;;;1.30;99.90;;;;;;5011804;28;20430;-58
2024/02/14 04:55:54;;;;;;;9.50;5.90;;;1.30;99.90;;;;;;5010478;28;20437;-60
2024/02/14 04:58:20;;;;;;;8.80;5.23;;;1.30;99.90;;;;;;5014563;28;20543;-60
2024/02/14 05:00:46;;;;;;;8.67;5.40;;;1.40;99.90;;;;;;5014983;28;20269;-58
2024/02/14 05:03:12;;;;;;;8.80;5.00;;;1.40;99.90;;;;;;5009831;28;20433;-59
2024/02/14 05:05:38;;;;;;;8.53;4.90;;;1.40;99.90;;;;;;5010353;28;22625;-60
2024/02/14 05:08:04;;;;;;;9.97;4.93;;;1.40;99.90;;;;;;5010297;28;20184;-59
2024/02/14 05:10:30;;;;;;;9.50;5.47;;;1.50;99.90;;;;;;5008649;28;20434;-60
2024/02/14 05:12:56;;;;;;;8.17;5.43;;;1.50;99.90;;;;;;4997352;28;20456;-61
2024/02/14 05:15:22;;;;;;;8.73;5.37;;;1.50;99.90;;;;;;5004378;28;20568;-59
2024/02/14 05:17:49;;;;;;;8.20;5.07;;;1.50;99.90;;;;;;4994251;28;20552;-58
2024/02/14 05:20:16;;;;;;;9.03;5.40;;;1.60;99.90;;;;;;4987100;28;20185;-56
2024/02/14 05:22:42;;;;;;;6.50;4.80;;;1.60;99.90;;;;;;4998140;28;20449;-58
2024/02/14 05:25:09;;;;;;;21.97;5.33;;;1.60;99.90;;;;;;4999725;28;21252;-58
2024/02/14 05:27:35;;;;;;;16.27;5.90;;;1.60;99.90;;;;;;5005460;28;20761;-60
2024/02/14 05:30:05;;;;;;;12.20;6.00;;;1.60;99.90;;;;;;5006047;28;20807;-60
2024/02/14 05:32:33;;;;;;;12.90;6.90;;;1.60;99.90;;;;;;5004866;28;20453;-56
2024/02/14 05:34:59;;;;;;;15.70;7.97;;;1.60;99.90;;;;;;5006931;28;20441;-58
2024/02/14 05:37:27;;;;;;;17.30;7.50;;;1.60;99.90;;;;;;5002580;28;20460;-59
2024/02/14 05:39:53;;;;;;;15.83;7.23;;;1.60;99.90;;;;;;5004089;28;20177;-60
2024/02/14 05:42:19;;;;;;;10.00;5.83;;;1.60;99.90;;;;;;5005143;28;20603;-58
2024/02/14 05:44:44;;;;;;;13.10;5.90;;;1.60;99.90;;;;;;5008594;28;20918;-58
2024/02/14 05:47:11;;;;;;;8.27;5.63;;;1.60;99.90;;;;;;5004425;28;20172;-58
2024/02/14 05:49:37;;;;;;;10.90;5.73;;;1.60;99.90;;;;;;5003050;28;20698;-58
2024/02/14 05:52:03;;;;;;;10.97;6.20;;;1.60;99.90;;;;;;5000548;28;20488;-57
2024/02/14 05:54:29;;;;;;;10.20;5.83;;;1.60;99.90;;;;;;5005586;28;20868;-59
2024/02/14 05:56:54;;;;;;;11.23;7.53;;;1.60;99.90;;;;;;5011395;28;20207;-58
2024/02/14 05:59:21;;;;;;;15.23;6.43;;;1.70;99.90;;;;;;5005361;28;20207;-58
2024/02/14 06:01:46;;;;;;;12.83;6.17;;;1.70;99.90;;;;;;5009007;28;20204;-57
2024/02/14 06:04:12;;;;;;;9.30;5.87;;;1.70;99.90;;;;;;5008913;28;20517;-58
2024/02/14 06:06:38;;;;;;;8.40;5.70;;;1.70;99.90;;;;;;5008964;28;20180;-59
2024/02/14 06:09:09;;;;;;;8.07;5.37;;;1.70;99.90;;;;;;5007906;28;20717;-59
2024/02/14 06:11:35;;;;;;;12.67;5.57;;;1.70;99.90;;;;;;5005310;28;20289;-59
2024/02/14 06:14:01;;;;;;;11.87;5.27;;;1.70;99.90;;;;;;5003274;28;20882;-59
2024/02/14 06:16:26;;;;;;;9.50;5.50;;;1.80;99.90;;;;;;5007001;28;20455;-59
2024/02/14 06:18:53;;;;;;;19.20;8.13;;;1.80;99.90;;;;;;5001433;28;20176;-58
2024/02/14 06:21:19;;;;;;;9.63;6.30;;;1.80;99.90;;;;;;4997002;28;20200;-59
2024/02/14 06:23:46;;;;;;;9.93;5.70;;;1.90;99.90;;;;;;5001281;28;20419;-58
2024/02/14 06:26:12;;;;;;;6.90;4.83;;;1.90;99.90;;;;;;5006273;28;20179;-59
2024/02/14 06:28:38;;;;;;;9.00;5.57;;;1.90;99.90;;;;;;5005233;28;20498;-61
2024/02/14 06:31:03;;;;;;;7.23;5.60;;;1.90;99.90;;;;;;5005723;28;20647;-58
2024/02/14 06:33:29;;;;;;;12.20;5.80;;;2.00;99.90;;;;;;4999643;28;20451;-58
2024/02/14 06:35:55;;;;;;;11.13;6.50;;;2.00;99.90;;;;;;5002572;28;20646;-59
2024/02/14 06:38:20;;;;;;;7.73;5.33;;;2.00;99.90;;;;;;5008105;28;20199;-59
2024/02/14 06:40:46;;;;;;;10.20;6.00;;;2.10;99.90;;;;;;5004563;28;20300;-58
2024/02/14 06:43:12;;;;;;;14.13;6.50;;;2.10;99.90;;;;;;5006938;28;20204;-59
2024/02/14 06:45:38;;;;;;;11.40;6.20;;;2.10;99.90;;;;;;4998969;28;20171;-59
2024/02/14 06:48:04;;;;;;;9.57;6.30;;;2.10;99.90;;;;;;5003212;28;20855;-59
2024/02/14 06:50:31;;;;;;;12.70;6.40;;;2.20;99.90;;;;;;5006221;28;20230;-58
2024/02/14 06:53:00;;;;;;;19.30;7.83;;;2.20;99.90;;;;;;5006073;28;21202;-58
2024/02/14 06:55:26;;;;;;;23.80;14.37;;;2.30;99.90;;;;;;5006090;28;20570;-59
2024/02/14 06:57:52;;;;;;;11.30;7.20;;;2.30;99.90;;;;;;5006270;28;20459;-58
2024/02/14 07:00:18;;;;;;;12.17;5.97;;;2.30;99.90;;;;;;5004013;28;20425;-60
2024/02/14 07:02:47;;;;;;;9.90;5.40;;;2.40;99.90;;;;;;4997822;28;20183;-59
2024/02/14 07:05:14;;;;;;;11.63;6.20;;;2.40;99.90;;;;;;5000331;28;20431;-59
2024/02/14 07:07:40;;;;;;;13.13;6.07;;;2.40;99.90;;;;;;5003697;28;20427;-58
2024/02/14 07:10:06;;;;;;;8.33;5.10;;;2.40;99.90;;;;;;5009829;28;20422;-58
2024/02/14 07:12:32;;;;;;;8.10;4.90;;;2.40;99.90;;;;;;5009037;28;20435;-59
2024/02/14 07:14:58;;;;;;;13.43;5.80;;;2.40;99.90;;;;;;5000305;28;20426;-59
2024/02/14 07:17:23;;;;;;;11.60;5.70;;;2.40;99.90;;;;;;5001173;28;20200;-60
2024/02/14 07:19:49;;;;;;;18.67;6.93;;;2.40;99.90;;;;;;5008044;28;20231;-58
2024/02/14 07:22:17;;;;;;;11.67;5.97;;;2.40;99.90;;;;;;5003992;28;20902;-56
2024/02/14 07:24:43;;;;;;;9.67;6.10;;;2.40;99.90;;;;;;5010813;28;20435;-60
2024/02/14 07:27:10;;;;;;;14.20;7.20;;;2.40;99.90;;;;;;5007731;28;20465;-58
2024/02/14 07:29:36;;;;;;;12.50;7.73;;;2.50;99.90;;;;;;5006535;28;20473;-57
2024/02/14 07:32:02;;;;;;;14.10;7.53;;;2.50;99.90;;;;;;5002544;28;20491;-58
2024/02/14 07:34:28;;;;;;;13.50;6.67;;;2.50;99.90;;;;;;5011075;28;20219;-59
2024/02/14 07:36:54;;;;;;;13.57;7.07;;;2.50;99.90;;;;;;5008614;28;20473;-58
2024/02/14 07:39:20;;;;;;;16.93;8.20;;;2.50;99.90;;;;;;5002241;28;20415;-61
2024/02/14 07:41:45;;;;;;;13.13;7.30;;;2.60;99.90;;;;;;5006023;28;20211;-58
2024/02/14 07:44:13;;;;;;;13.60;6.80;;;2.70;99.90;;;;;;5008623;28;20816;-58
2024/02/14 07:46:38;;;;;;;11.03;6.80;;;2.70;99.90;;;;;;5010230;28;20172;-59
2024/02/14 07:49:04;;;;;;;12.97;7.00;;;2.80;99.90;;;;;;5011120;28;20444;-60
2024/02/14 07:51:36;;;;;;;12.10;6.90;;;2.90;99.90;;;;;;5005726;28;20287;-59
2024/02/14 07:54:02;;;;;;;17.57;7.20;;;3.00;99.90;;;;;;5010174;28;20804;-57
2024/02/14 07:56:28;;;;;;;13.83;6.97;;;3.00;99.90;;;;;;5002884;28;20428;-58
2024/02/14 07:58:53;;;;;;;26.77;6.83;;;3.10;99.90;;;;;;5010857;28;20812;-58
2024/02/14 08:01:19;;;;;;;14.03;7.37;;;3.20;99.90;;;;;;5008418;28;20230;-59
2024/02/14 08:03:46;;;;;;;14.00;7.53;;;3.30;99.90;;;;;;5008336;28;20182;-59
2024/02/14 08:06:12;;;;;;;18.33;7.77;;;3.30;99.90;;;;;;5002586;28;20727;-59
2024/02/14 08:08:38;;;;;;;10.50;7.00;;;3.40;99.90;;;;;;5008526;28;20515;-59
2024/02/14 08:11:04;;;;;;;12.40;8.73;;;3.50;99.90;;;;;;5004569;28;21024;-58
2024/02/14 08:13:29;;;;;;;13.40;7.63;;;3.60;99.90;;;;;;5001765;28;20245;-59
2024/02/14 08:15:55;;;;;;;19.10;7.97;;;3.60;99.90;;;;;;5008934;28;20502;-60
2024/02/14 08:18:21;;;;;;;10.50;7.53;;;3.70;99.90;;;;;;5006463;28;20247;-57
2024/02/14 08:20:46;;;;;;;17.30;7.87;;;3.80;99.90;;;;;;5005057;28;20247;-58
2024/02/14 08:23:12;;;;;;;19.07;8.30;;;3.80;99.90;;;;;;5003646;28;20203;-58
2024/02/14 08:25:38;;;;;;;17.90;7.40;;;3.90;99.90;;;;;;5009261;28;20177;-58
2024/02/14 08:28:03;;;;;;;16.03;8.50;;;3.90;99.90;;;;;;5008795;28;20259;-59
2024/02/14 08:30:29;;;;;;;11.50;7.33;;;4.00;99.90;;;;;;5011062;28;20207;-61
2024/02/14 08:32:55;;;;;;;17.27;8.50;;;4.00;99.90;;;;;;5004749;28;20185;-59
2024/02/14 08:35:21;;;;;;;15.80;8.23;;;4.10;99.90;;;;;;5007591;28;20184;-59
2024/02/14 08:37:47;;;;;;;22.70;9.17;;;4.20;99.90;;;;;;5009381;28;20216;-58
2024/02/14 08:40:12;;;;;;;16.77;8.07;;;4.30;99.90;;;;;;5005225;28;21558;-57
2024/02/14 08:42:38;;;;;;;19.17;8.50;;;4.50;99.90;;;;;;5007711;28;20176;-58
2024/02/14 08:45:04;;;;;;;14.03;8.10;;;4.60;99.90;;;;;;5003096;28;20185;-59
2024/02/14 08:47:30;;;;;;;16.77;8.43;;;4.80;99.90;;;;;;5001430;28;20423;-58
2024/02/14 08:49:56;;;;;;;12.30;8.03;;;4.90;99.90;;;;;;5005295;28;20436;-59
2024/02/14 08:52:21;;;;;;;14.23;8.57;;;5.10;99.90;;;;;;4999524;28;20262;-56
2024/02/14 08:54:47;;;;;;;16.27;8.53;;;5.20;99.90;;;;;;5010401;28;20588;-58
2024/02/14 08:57:13;;;;;;;13.23;8.30;;;5.30;99.90;;;;;;5010436;28;20189;-58
2024/02/14 08:59:38;;;;;;;11.20;7.17;;;5.40;99.90;;;;;;5009270;28;20173;-59
2024/02/14 09:02:04;;;;;;;16.47;7.57;;;5.40;99.90;;;;;;5008815;28;20253;-59
2024/02/14 09:04:30;;;;;;;17.43;7.70;;;5.50;99.90;;;;;;5005244;28;20178;-56
2024/02/14 09:06:56;;;;;;;16.30;7.33;;;5.60;99.90;;;;;;5006859;28;20212;-59
2024/02/14 09:09:22;;;;;;;15.07;7.57;;;5.70;99.90;;;;;;5011015;28;20463;-57
2024/02/14 09:11:47;;;;;;;12.63;6.63;;;5.90;99.90;;;;;;5014912;28;20793;-59
2024/02/14 09:14:13;;;;;;;8.90;5.80;;;6.00;99.90;;;;;;5009095;28;20778;-58
2024/02/14 09:16:39;;;;;;;21.83;7.30;;;6.10;99.90;;;;;;5009030;28;20207;-61
2024/02/14 09:19:07;;;;;;;15.30;6.67;;;6.20;99.90;;;;;;5007739;28;20730;-58
2024/02/14 09:21:35;;;;;;;12.70;6.07;;;6.20;99.90;;;;;;4996816;28;20197;-60
2024/02/14 09:24:01;;;;;;;20.77;7.20;;;6.30;99.90;;;;;;5005973;28;20802;-59
2024/02/14 09:26:26;;;;;;;9.73;5.97;;;6.40;99.90;;;;;;5006143;28;20446;-60
2024/02/14 09:28:52;;;;;;;11.10;5.10;;;6.50;99.90;;;;;;5003792;28;20172;-60
2024/02/14 09:31:21;;;;;;;10.43;4.77;;;6.60;99.90;;;;;;5001364;28;20193;-54
2024/02/14 09:33:49;;;;;;;10.70;5.80;;;6.70;99.80;;;;;;5003147;28;20172;-57
2024/02/14 09:36:15;;;;;;;11.97;5.23;;;6.80;97.50;;;;;;5001590;28;20423;-58
2024/02/14 09:38:42;;;;;;;7.23;3.00;;;6.90;95.30;;;;;;5005442;28;20423;-58
2024/02/14 09:41:36;;;;;;;11.90;3.20;;;7.00;93.40;;;;;;5006843;28;20450;-58
2024/02/14 09:44:03;;;;;;;4.80;3.00;;;7.00;91.50;;;;;;5004634;28;20423;-58
2024/02/14 09:46:30;;;;;;;8.20;3.10;;;7.10;90.40;;;;;;5007341;28;20793;-56
2024/02/14 09:48:59;;;;;;;5.83;2.90;;;7.20;88.90;;;;;;5006809;28;20431;-58
2024/02/14 09:51:25;;;;;;;5.30;2.40;;;7.40;85.80;;;;;;5009148;28;20442;-58
2024/02/14 09:53:53;;;;;;;2.90;2.60;;;7.40;84.40;;;;;;5005344;28;20404;-58
2024/02/14 09:56:22;;;;;;;5.50;2.70;;;7.50;84.70;;;;;;5006699;28;20517;-58
2024/02/14 09:58:55;;;;;;;2.80;2.47;;;7.60;82.70;;;;;;5005855;28;20537;-59
2024/02/14 10:01:23;;;;;;;3.40;2.80;;;7.80;81.50;;;;;;5013479;28;20522;-58
2024/02/14 10:03:50;;;;;;;3.83;2.47;;;7.90;80.70;;;;;;5003338;28;20918;-59
2024/02/14 10:06:16;;;;;;;3.43;2.50;;;8.00;79.60;;;;;;5010813;28;20534;-57
2024/02/14 10:08:42;;;;;;;4.17;2.53;;;8.10;79.10;;;;;;5009217;28;20432;-57
2024/02/14 10:11:08;;;;;;;7.30;3.00;;;8.20;78.00;;;;;;5006791;28;20440;-58
2024/02/14 10:13:34;;;;;;;8.90;2.87;;;8.30;77.10;;;;;;5003030;28;20177;-59
2024/02/14 10:16:00;;;;;;;6.23;3.40;;;8.40;76.50;;;;;;5002693;28;20173;-58
2024/02/14 10:18:26;;;;;;;7.63;2.80;;;8.50;76.00;;;;;;5003737;28;20460;-58
2024/02/14 10:20:58;;;;;;;4.90;2.53;;;8.60;75.60;;;;;;5008487;28;20960;-58
2024/02/14 10:23:24;;;;;;;2.83;2.23;;;8.70;75.10;;;;;;5003559;28;20423;-58
2024/02/14 10:25:53;;;;;;;3.53;2.37;;;8.70;74.90;;;;;;5005973;28;20423;-59
2024/02/14 10:28:21;;;;;;;4.07;2.20;;;8.70;74.60;;;;;;5003753;28;20196;-58
2024/02/14 10:30:46;;;;;;;3.33;2.40;;;8.80;74.50;;;;;;4998623;28;20508;-59
2024/02/14 10:33:12;;;;;;;3.40;2.37;;;8.80;73.70;;;;;;5008874;28;20447;-58
2024/02/14 10:35:41;;;;;;;4.70;2.50;;;8.80;73.90;;;;;;5007396;28;20207;-59
2024/02/14 10:38:09;;;;;;;3.03;2.40;;;8.80;74.10;;;;;;5005974;28;20266;-58
2024/02/14 10:40:35;;;;;;;6.93;3.43;;;8.80;74.20;;;;;;5006816;28;20486;-60
2024/02/14 10:43:02;;;;;;;8.20;2.30;;;8.90;74.80;;;;;;5008772;28;20443;-58
2024/02/14 10:45:27;;;;;;;3.57;2.10;;;8.90;75.50;;;;;;5008009;28;20419;-61
2024/02/14 10:47:57;;;;;;;6.20;2.37;;;9.00;75.60;;;;;;4999805;28;20524;-59
2024/02/14 10:50:24;;;;;;;4.43;2.20;;;9.00;75.50;;;;;;5005911;28;20195;-58
2024/02/14 10:52:56;;;;;;;4.27;2.10;;;9.10;75.70;;;;;;5010341;28;20443;-59
2024/02/14 10:55:26;;;;;;;2.50;2.30;;;9.10;76.00;;;;;;5008571;28;20426;-60
2024/02/14 10:57:54;;;;;;;3.27;2.23;;;9.10;76.80;;;;;;5005369;28;20586;-60
2024/02/14 11:00:20;;;;;;;3.50;1.90;;;9.10;78.00;;;;;;5008185;28;20435;-59
2024/02/14 11:02:48;;;;;;;6.40;2.73;;;9.20;78.80;;;;;;5012906;28;20411;-58
2024/02/14 11:05:15;;;;;;;6.53;2.17;;;9.30;79.30;;;;;;5010792;28;20945;-60
2024/02/14 11:07:47;;;;;;;3.60;2.13;;;9.40;80.10;;;;;;5007449;28;20430;-58
2024/02/14 11:10:16;;;;;;;4.30;2.37;;;9.50;80.90;;;;;;5014710;28;20901;-58
2024/02/14 11:12:44;;;;;;;3.93;2.47;;;9.60;81.40;;;;;;5009414;28;20427;-58
2024/02/14 11:15:17;;;;;;;2.93;1.73;;;9.80;82.10;;;;;;5011725;28;20435;-60
2024/02/14 11:17:43;;;;;;;1.83;1.63;;;9.90;81.90;;;;;;5009891;28;20877;-61
2024/02/14 11:20:19;;;;;;;2.40;1.70;;;10.00;81.00;;;;;;5012664;28;20468;-58
2024/02/14 11:22:56;;;;;;;12.43;2.63;;;10.20;81.50;;;;;;5010877;28;20263;-58
2024/02/14 11:25:34;;;;;;;16.30;2.13;;;10.30;81.00;;;;;;5009447;28;20418;-59
2024/02/14 11:28:20;;;;;;;2.30;1.20;;;10.50;80.60;;;;;;5002379;28;20442;-56
2024/02/14 11:30:46;;;;;;;2.77;1.83;;;10.70;79.80;;;;;;5006169;28;20489;-58
2024/02/14 11:33:17;;;;;;;2.80;1.90;;;10.90;79.20;;;;;;5005520;28;20423;-58
2024/02/14 11:35:45;;;;;;;6.33;1.50;;;11.10;77.80;;;;;;5010448;28;20470;-59
2024/02/14 11:38:11;;;;;;;3.50;1.57;;;11.30;77.40;;;;;;5002745;28;20467;-59
2024/02/14 11:40:40;;;;;;;10.40;1.97;;;11.40;74.30;;;;;;5013084;28;20470;-60
2024/02/14 11:43:16;;;;;;;4.50;1.47;;;11.60;74.40;;;;;;5005281;28;20188;-59
2024/02/14 11:45:43;;;;;;;1.63;1.37;;;11.70;74.20;;;;;;5001469;28;20481;-59
2024/02/14 11:48:13;;;;;;;4.03;1.50;;;11.90;72.40;;;;;;4999098;28;20818;-60
2024/02/14 11:50:43;;;;;;;2.30;1.70;;;11.90;71.20;;;;;;4999770;28;20439;-59
2024/02/14 11:53:11;;;;;;;2.00;1.60;;;11.90;71.00;;;;;;5001054;28;20431;-58
2024/02/14 11:55:38;;;;;;;1.37;1.20;;;12.10;72.00;;;;;;5000998;28;20426;-59
2024/02/14 11:58:17;;;;;;;2.83;1.70;;;12.20;71.40;;;;;;5004671;28;20467;-59
2024/02/14 12:00:44;;;;;;;1.40;1.30;;;12.20;71.00;;;;;;5001906;28;20859;-58
2024/02/14 12:03:13;;;;;;;1.53;1.17;;;12.30;70.90;;;;;;4996204;28;20435;-59
2024/02/14 12:05:39;;;;;;;9.47;1.83;;;12.30;70.60;;;;;;5008258;28;21071;-56
2024/02/14 12:08:06;;;;;;;8.80;1.90;;;12.40;70.70;;;;;;5004914;28;20431;-59
2024/02/14 12:10:32;;;;;;;1.90;1.30;;;12.40;69.90;;;;;;5014038;28;20453;-59
2024/02/14 12:13:04;;;;;;;1.20;1.10;;;12.30;69.90;;;;;;5012327;28;20418;-57
2024/02/14 12:15:29;;;;;;;3.07;1.40;;;12.30;70.60;;;;;;5013225;28;20885;-60
2024/02/14 12:17:56;;;;;;;1.10;1.00;;;12.40;71.00;;;;;;5012090;28;20459;-58
2024/02/14 12:20:23;;;;;;;1.10;1.00;;;12.50;71.50;;;;;;5010475;28;20183;-60
2024/02/14 12:22:52;;;;;;;2.27;1.40;;;12.80;71.20;;;;;;5003414;28;20423;-59
2024/02/14 12:25:17;;;;;;;1.20;1.10;;;13.00;69.70;;;;;;5009240;28;21289;-60
2024/02/14 12:27:50;;;;;;;3.03;1.13;;;13.20;69.00;;;;;;5010531;28;20420;-60
2024/02/14 12:30:18;;;;;;;1.13;0.93;;;13.50;67.40;;;;;;5010357;28;20587;-59
2024/02/14 12:32:44;;;;;;;1.53;1.03;;;13.80;66.60;;;;;;5010797;28;20419;-59
2024/02/14 12:35:10;;;;;;;1.00;1.00;;;14.10;65.50;;;;;;5008914;28;20485;-59
2024/02/14 12:37:36;;;;;;;1.63;1.00;;;14.30;65.10;;;;;;5006989;28;20993;-60
2024/02/14 12:40:02;;;;;;;2.50;0.90;;;14.60;64.10;;;;;;5008092;28;20180;-60
2024/02/14 12:42:28;;;;;;;1.23;0.93;;;14.90;63.60;;;;;;5012865;28;20199;-61
2024/02/14 12:44:56;;;;;;;0.97;0.87;;;15.20;63.10;;;;;;5012792;28;20577;-60
2024/02/14 12:47:23;;;;;;;1.20;1.10;;;15.30;60.60;;;;;;5007537;28;20442;-59
2024/02/14 12:49:49;;;;;;;2.00;1.10;;;15.10;60.70;;;;;;5010032;28;20411;-59